sensor_id;sensor_type;location;lat;lon;timestamp;P1;durP1;ratioP1;P2;durP2;ratioP2
18267;SDS011;9260;49.998;19.880;2022-08-01T00:03:06;215.73;;;97.83;;
18267;SDS011;9260;49.998;19.880;2022-08-01T00:13:09;213.67;;;97.13;;
18267;SDS011;9260;49.998;19.880;2022-08-01T00:23:14;219.53;;;98.87;;
18267;SDS011;9260;49.998;19.880;2022-08-01T00:33:17;221.77;;;97.73;;
18267;SDS011;9260;49.998;19.880;2022-08-01T00:43:22;220.43;;;98.80;;
18267;SDS011;9260;49.998;19.880;2022-08-01T00:53:25;213.43;;;96.57;;
18267;SDS011;9260;49.998;19.880;2022-08-01T01:03:51;220.10;;;102.30;;
18267;SDS011;9260;49.998;19.880;2022-08-01T01:14:01;214.47;;;95.13;;
18267;SDS011;9260;49.998;19.880;2022-08-01T01:24:16;214.93;;;97.27;;
18267;SDS011;9260;49.998;19.880;2022-08-01T01:34:35;225.77;;;97.37;;
18267;SDS011;9260;49.998;19.880;2022-08-01T01:44:42;216.57;;;96.33;;
18267;SDS011;9260;49.998;19.880;2022-08-01T01:54:49;216.77;;;95.27;;
18267;SDS011;9260;49.998;19.880;2022-08-01T02:04:54;224.00;;;100.50;;
18267;SDS011;9260;49.998;19.880;2022-08-01T02:15:01;221.80;;;100.67;;
18267;SDS011;9260;49.998;19.880;2022-08-01T02:25:08;218.07;;;96.63;;
18267;SDS011;9260;49.998;19.880;2022-08-01T02:35:22;217.87;;;96.50;;
18267;SDS011;9260;49.998;19.880;2022-08-01T02:45:29;214.77;;;96.07;;
18267;SDS011;9260;49.998;19.880;2022-08-01T02:55:37;221.10;;;94.60;;
18267;SDS011;9260;49.998;19.880;2022-08-01T03:05:42;219.23;;;96.47;;
18267;SDS011;9260;49.998;19.880;2022-08-01T03:15:47;222.77;;;95.17;;
18267;SDS011;9260;49.998;19.880;2022-08-01T03:25:52;219.97;;;97.13;;
18267;SDS011;9260;49.998;19.880;2022-08-01T03:35:57;215.27;;;94.40;;
18267;SDS011;9260;49.998;19.880;2022-08-01T03:46:05;210.77;;;90.30;;
18267;SDS011;9260;49.998;19.880;2022-08-01T03:56:14;220.07;;;94.77;;
18267;SDS011;9260;49.998;19.880;2022-08-01T04:06:21;220.87;;;97.70;;
18267;SDS011;9260;49.998;19.880;2022-08-01T04:16:26;219.77;;;96.83;;
18267;SDS011;9260;49.998;19.880;2022-08-01T04:26:30;219.67;;;97.40;;
18267;SDS011;9260;49.998;19.880;2022-08-01T04:36:36;229.67;;;103.13;;
18267;SDS011;9260;49.998;19.880;2022-08-01T04:46:43;224.90;;;92.93;;
18267;SDS011;9260;49.998;19.880;2022-08-01T04:56:51;219.30;;;99.20;;
18267;SDS011;9260;49.998;19.880;2022-08-01T05:06:57;222.63;;;100.50;;
18267;SDS011;9260;49.998;19.880;2022-08-01T05:17:02;228.07;;;104.63;;
18267;SDS011;9260;49.998;19.880;2022-08-01T05:27:08;225.47;;;101.73;;
18267;SDS011;9260;49.998;19.880;2022-08-01T05:37:17;225.87;;;102.57;;
18267;SDS011;9260;49.998;19.880;2022-08-01T05:47:21;232.90;;;105.50;;
18267;SDS011;9260;49.998;19.880;2022-08-01T05:57:26;223.80;;;102.83;;
18267;SDS011;9260;49.998;19.880;2022-08-01T06:07:29;234.60;;;107.87;;
18267;SDS011;9260;49.998;19.880;2022-08-01T06:17:34;230.37;;;103.87;;
18267;SDS011;9260;49.998;19.880;2022-08-01T06:27:38;227.63;;;104.70;;
18267;SDS011;9260;49.998;19.880;2022-08-01T06:37:42;219.17;;;104.63;;
18267;SDS011;9260;49.998;19.880;2022-08-01T06:47:48;213.37;;;100.03;;
18267;SDS011;9260;49.998;19.880;2022-08-01T06:57:52;220.87;;;104.60;;
18267;SDS011;9260;49.998;19.880;2022-08-01T07:07:56;209.87;;;98.77;;
18267;SDS011;9260;49.998;19.880;2022-08-01T07:18:01;211.17;;;98.63;;
18267;SDS011;9260;49.998;19.880;2022-08-01T07:28:05;203.43;;;97.10;;
18267;SDS011;9260;49.998;19.880;2022-08-01T07:38:10;209.77;;;103.83;;
18267;SDS011;9260;49.998;19.880;2022-08-01T07:48:14;211.33;;;105.23;;
18267;SDS011;9260;49.998;19.880;2022-08-01T07:58:18;207.70;;;111.23;;
18267;SDS011;9260;49.998;19.880;2022-08-01T08:08:22;213.50;;;117.77;;
18267;SDS011;9260;49.998;19.880;2022-08-01T08:18:27;207.13;;;118.57;;
18267;SDS011;9260;49.998;19.880;2022-08-01T08:28:30;202.05;;;117.82;;
18267;SDS011;9260;49.998;19.880;2022-08-01T08:38:35;202.52;;;122.70;;
18267;SDS011;9260;49.998;19.880;2022-08-01T08:48:41;203.48;;;125.68;;
18267;SDS011;9260;49.998;19.880;2022-08-01T08:58:46;192.32;;;128.82;;
18267;SDS011;9260;49.998;19.880;2022-08-01T09:08:50;189.35;;;130.50;;
18267;SDS011;9260;49.998;19.880;2022-08-01T09:19:03;181.25;;;128.45;;
18267;SDS011;9260;49.998;19.880;2022-08-01T09:29:17;177.93;;;127.38;;
18267;SDS011;9260;49.998;19.880;2022-08-01T09:39:40;173.82;;;127.47;;
18267;SDS011;9260;49.998;19.880;2022-08-01T09:49:44;179.20;;;133.60;;
18267;SDS011;9260;49.998;19.880;2022-08-01T09:59:54;168.23;;;127.97;;
18267;SDS011;9260;49.998;19.880;2022-08-01T10:10:08;168.07;;;128.48;;
18267;SDS011;9260;49.998;19.880;2022-08-01T10:20:16;171.68;;;130.30;;
18267;SDS011;9260;49.998;19.880;2022-08-01T10:30:31;168.88;;;129.98;;
18267;SDS011;9260;49.998;19.880;2022-08-01T10:40:35;172.82;;;131.13;;
18267;SDS011;9260;49.998;19.880;2022-08-01T10:50:41;169.90;;;123.60;;
18267;SDS011;9260;49.998;19.880;2022-08-01T11:00:50;173.88;;;125.45;;
18267;SDS011;9260;49.998;19.880;2022-08-01T11:11:33;176.38;;;122.95;;
18267;SDS011;9260;49.998;19.880;2022-08-01T11:22:08;173.45;;;124.35;;
18267;SDS011;9260;49.998;19.880;2022-08-01T11:42:44;172.65;;;128.15;;
18267;SDS011;9260;49.998;19.880;2022-08-01T11:52:48;176.38;;;128.40;;
18267;SDS011;9260;49.998;19.880;2022-08-01T12:03:03;181.23;;;126.43;;
18267;SDS011;9260;49.998;19.880;2022-08-01T12:13:08;185.85;;;124.53;;
18267;SDS011;9260;49.998;19.880;2022-08-01T12:23:15;189.38;;;124.07;;
18267;SDS011;9260;49.998;19.880;2022-08-01T12:33:19;196.20;;;122.15;;
18267;SDS011;9260;49.998;19.880;2022-08-01T12:43:25;194.75;;;121.35;;
18267;SDS011;9260;49.998;19.880;2022-08-01T12:53:33;194.15;;;116.20;;
18267;SDS011;9260;49.998;19.880;2022-08-01T13:03:44;197.38;;;122.53;;
18267;SDS011;9260;49.998;19.880;2022-08-01T13:14:01;195.80;;;117.53;;
18267;SDS011;9260;49.998;19.880;2022-08-01T13:24:07;194.00;;;114.37;;
18267;SDS011;9260;49.998;19.880;2022-08-01T13:34:13;196.37;;;117.50;;
18267;SDS011;9260;49.998;19.880;2022-08-01T13:44:18;200.77;;;116.37;;
18267;SDS011;9260;49.998;19.880;2022-08-01T13:54:22;197.47;;;116.30;;
18267;SDS011;9260;49.998;19.880;2022-08-01T14:04:27;197.35;;;119.82;;
18267;SDS011;9260;49.998;19.880;2022-08-01T14:14:30;195.57;;;117.50;;
18267;SDS011;9260;49.998;19.880;2022-08-01T14:24:35;191.65;;;114.60;;
18267;SDS011;9260;49.998;19.880;2022-08-01T14:34:41;193.02;;;115.75;;
18267;SDS011;9260;49.998;19.880;2022-08-01T14:44:46;196.40;;;120.63;;
18267;SDS011;9260;49.998;19.880;2022-08-01T14:54:50;191.20;;;116.38;;
18267;SDS011;9260;49.998;19.880;2022-08-01T15:04:55;197.68;;;117.90;;
18267;SDS011;9260;49.998;19.880;2022-08-01T15:14:58;194.48;;;116.30;;
18267;SDS011;9260;49.998;19.880;2022-08-01T15:25:03;205.82;;;125.07;;
18267;SDS011;9260;49.998;19.880;2022-08-01T15:35:08;198.17;;;110.17;;
18267;SDS011;9260;49.998;19.880;2022-08-01T15:45:13;195.23;;;117.32;;
18267;SDS011;9260;49.998;19.880;2022-08-01T15:55:40;195.87;;;114.50;;
18267;SDS011;9260;49.998;19.880;2022-08-01T16:05:54;194.23;;;112.27;;
18267;SDS011;9260;49.998;19.880;2022-08-01T16:15:58;201.37;;;119.40;;
18267;SDS011;9260;49.998;19.880;2022-08-01T16:26:05;197.57;;;114.80;;
18267;SDS011;9260;49.998;19.880;2022-08-01T16:36:28;201.43;;;115.43;;
18267;SDS011;9260;49.998;19.880;2022-08-01T16:46:33;205.23;;;116.53;;
18267;SDS011;9260;49.998;19.880;2022-08-01T16:56:36;204.53;;;112.37;;
18267;SDS011;9260;49.998;19.880;2022-08-01T17:06:41;211.40;;;116.23;;
18267;SDS011;9260;49.998;19.880;2022-08-01T17:16:45;220.50;;;114.07;;
18267;SDS011;9260;49.998;19.880;2022-08-01T17:26:50;221.70;;;114.70;;
18267;SDS011;9260;49.998;19.880;2022-08-01T17:36:54;235.10;;;113.17;;
18267;SDS011;9260;49.998;19.880;2022-08-01T17:46:58;227.40;;;113.93;;
18267;SDS011;9260;49.998;19.880;2022-08-01T17:57:02;220.63;;;110.30;;
18267;SDS011;9260;49.998;19.880;2022-08-01T18:07:10;220.50;;;108.30;;
18267;SDS011;9260;49.998;19.880;2022-08-01T18:17:14;220.73;;;106.73;;
18267;SDS011;9260;49.998;19.880;2022-08-01T18:27:19;217.43;;;106.27;;
18267;SDS011;9260;49.998;19.880;2022-08-01T18:37:22;214.63;;;103.37;;
18267;SDS011;9260;49.998;19.880;2022-08-01T18:47:34;213.40;;;100.33;;
18267;SDS011;9260;49.998;19.880;2022-08-01T18:57:37;215.17;;;104.37;;
18267;SDS011;9260;49.998;19.880;2022-08-01T19:07:44;214.90;;;102.47;;
18267;SDS011;9260;49.998;19.880;2022-08-01T19:18:07;217.60;;;102.40;;
18267;SDS011;9260;49.998;19.880;2022-08-01T19:28:12;213.93;;;100.20;;
18267;SDS011;9260;49.998;19.880;2022-08-01T19:38:18;217.73;;;103.57;;
18267;SDS011;9260;49.998;19.880;2022-08-01T19:48:23;218.67;;;104.80;;
18267;SDS011;9260;49.998;19.880;2022-08-01T19:58:26;218.77;;;104.17;;
18267;SDS011;9260;49.998;19.880;2022-08-01T20:08:32;216.03;;;103.27;;
18267;SDS011;9260;49.998;19.880;2022-08-01T20:18:38;218.53;;;104.73;;
18267;SDS011;9260;49.998;19.880;2022-08-01T20:28:44;217.00;;;101.70;;
18267;SDS011;9260;49.998;19.880;2022-08-01T20:38:49;216.03;;;101.07;;
18267;SDS011;9260;49.998;19.880;2022-08-01T20:48:58;221.47;;;106.03;;
18267;SDS011;9260;49.998;19.880;2022-08-01T20:59:05;215.83;;;103.27;;
18267;SDS011;9260;49.998;19.880;2022-08-01T21:09:34;214.93;;;101.03;;
18267;SDS011;9260;49.998;19.880;2022-08-01T21:19:40;214.43;;;97.87;;
18267;SDS011;9260;49.998;19.880;2022-08-01T21:29:50;218.70;;;100.80;;
18267;SDS011;9260;49.998;19.880;2022-08-01T21:39:54;219.27;;;101.37;;
18267;SDS011;9260;49.998;19.880;2022-08-01T22:00:51;227.43;;;106.57;;
18267;SDS011;9260;49.998;19.880;2022-08-01T22:11:04;217.63;;;98.10;;
18267;SDS011;9260;49.998;19.880;2022-08-01T22:21:09;222.63;;;104.00;;
18267;SDS011;9260;49.998;19.880;2022-08-01T22:31:15;221.13;;;99.23;;
18267;SDS011;9260;49.998;19.880;2022-08-01T22:41:21;226.37;;;104.50;;
18267;SDS011;9260;49.998;19.880;2022-08-01T22:51:54;239.77;;;104.60;;
18267;SDS011;9260;49.998;19.880;2022-08-01T23:02:06;225.43;;;105.00;;
18267;SDS011;9260;49.998;19.880;2022-08-01T23:12:13;227.70;;;108.03;;
18267;SDS011;9260;49.998;19.880;2022-08-01T23:22:19;227.33;;;103.50;;
18267;SDS011;9260;49.998;19.880;2022-08-01T23:32:25;217.50;;;98.30;;
18267;SDS011;9260;49.998;19.880;2022-08-01T23:42:28;218.80;;;101.20;;
18267;SDS011;9260;49.998;19.880;2022-08-01T23:52:33;223.10;;;103.77;;
